Terminal Aerodrome Forecast
Issued by NWS Greer, SC

Home | Current Version | Previous Version | Text Only | Print | Product List | Glossary On
Versions: 1 2 3 4 5 6 7 8 9 10 11 12 13 14 15 16 17 18 19 20
000
FTUS42 KGSP 232157 AAB
TAFGSP
TAF AMD
KGSP 232157Z 2322/2418 18007KT P6SM VCSH SCT050 BKN250
     FM240200 VRB03KT P6SM SCT050 BKN150
     FM240900 03003KT 5SM BR SCT020 BKN060
     FM241300 04005KT P6SM BKN024 PROB30 2415/2418 4SM -TSRA
      OVC015CB=

USA.gov is the U.S. government's official web portal to all federal, state and local government web resources and services.